Lancaster Junction, Pennsylvania
Current Conditions -  °F | °C
As of 10:53 AM on Friday 28 Nov 2014 (Local Time) from KLNS Reporting Station
Overcast Overcast  
Wind Chill: 22°   Ceiling: 4500
Heat Index: 32°   Visibility: 10mi
Dew Point: 19°   Wind: 14mph
Humidity: 59%   Direction: 300°WNW
Pressure: 30.25"   Gusts: NA
Location:  40.1777°N, 76.4291°W
Report Text: KLNS 281553Z 30012KT 10SM BKN045 OVC050 00/M07 A3025 RMK AO2 SLP249 T00001072
Loading
Personal Weather Stations






























Interactive Weather Map New forecast layout! Learn more

10-Day Weather Forecast

Advertisements
Track Severe Weather on mobile